createdAt,value
2019-02-27T00:00:56.964Z,73.28
2019-02-27T00:03:28.756Z,74.05
2019-02-27T00:05:57.467Z,73.42
2019-02-27T00:08:27.474Z,79.10
2019-02-27T00:10:57.312Z,82.55
2019-02-27T00:13:26.698Z,72.17
2019-02-27T00:15:56.086Z,75.22
2019-02-27T00:18:25.526Z,78.25
2019-02-27T00:20:54.912Z,74.07
2019-02-27T00:23:24.680Z,76.75
2019-02-27T00:25:54.144Z,73.70
2019-02-27T00:28:23.991Z,78.83
2019-02-27T00:30:53.378Z,75.32
2019-02-27T00:33:26.075Z,77.97
2019-02-27T00:35:54.450Z,76.12
2019-02-27T00:38:25.173Z,80.32
2019-02-27T00:40:55.194Z,78.83
2019-02-27T00:43:25.949Z,77.90
2019-02-27T00:45:55.673Z,79.27
2019-02-27T00:48:26.262Z,85.05
2019-02-27T00:50:56.181Z,78.65
2019-02-27T00:53:25.553Z,80.38
2019-02-27T00:55:54.976Z,78.67
2019-02-27T00:58:26.799Z,83.60
2019-02-27T01:00:55.452Z,85.40
2019-02-27T01:03:26.173Z,82.65
2019-02-27T01:05:56.154Z,81.90
2019-02-27T01:08:27.658Z,87.17
2019-02-27T01:10:56.680Z,84.20
2019-02-27T01:13:26.039Z,80.17
2019-02-27T01:15:55.414Z,78.67
2019-02-27T01:18:24.804Z,83.85
2019-02-27T01:20:54.183Z,78.90
2019-02-27T01:23:23.558Z,84.13
2019-02-27T01:25:56.067Z,81.87
2019-02-27T01:28:24.043Z,79.00
2019-02-27T01:30:53.434Z,81.80
2019-02-27T01:33:22.852Z,81.70
2019-02-27T01:35:52.431Z,81.45
2019-02-27T01:38:21.883Z,84.72
2019-02-27T01:40:51.623Z,86.82
2019-02-27T01:43:21.435Z,86.15
2019-02-27T01:45:51.866Z,84.53
2019-02-27T01:48:21.953Z,88.55
2019-02-27T01:50:54.969Z,84.72
2019-02-27T01:53:22.439Z,83.55
2019-02-27T01:55:56.164Z,84.83
2019-02-27T01:58:23.193Z,83.12
2019-02-27T02:00:56.044Z,78.78
2019-02-27T02:03:23.691Z,80.32
2019-02-27T02:05:53.081Z,84.87
2019-02-27T02:08:22.657Z,80.32
2019-02-27T02:10:54.673Z,88.30
2019-02-27T02:13:34.604Z,82.75
2019-02-27T02:16:28.408Z,87.85
2019-02-27T02:19:14.191Z,79.62
2019-02-27T02:22:20.065Z,81.47
2019-02-27T02:25:18.202Z,84.60
2019-02-27T02:28:07.174Z,78.30
2019-02-27T02:31:05.367Z,86.12
2019-02-27T02:34:15.025Z,82.95
2019-02-27T02:37:25.182Z,84.25
2019-02-27T02:40:31.243Z,82.50
2019-02-27T02:43:50.635Z,78.85
2019-02-27T02:46:45.496Z,89.83
2019-02-27T02:49:53.022Z,85.75
2019-02-27T02:52:50.417Z,80.85
2019-02-27T02:55:49.060Z,85.90
2019-02-27T02:58:32.002Z,87.33
2019-02-27T03:01:15.163Z,89.22
2019-02-27T03:03:59.441Z,84.30
2019-02-27T03:06:38.982Z,83.92
2019-02-27T03:09:35.086Z,87.45
2019-02-27T03:12:33.338Z,79.17
2019-02-27T03:15:16.003Z,82.82
2019-02-27T03:18:12.606Z,78.42
2019-02-27T03:20:52.325Z,89.05
2019-02-27T03:23:52.241Z,85.22
2019-02-27T03:26:38.766Z,76.85
2019-02-27T03:29:36.293Z,86.30
2019-02-27T03:32:19.327Z,81.35
2019-02-27T03:35:05.131Z,89.05
2019-02-27T03:38:00.593Z,83.00
2019-02-27T03:41:09.132Z,79.30
2019-02-27T03:44:20.200Z,80.77
2019-02-27T03:46:59.572Z,88.82
2019-02-27T03:50:14.638Z,82.92
2019-02-27T03:53:18.587Z,82.62
2019-02-27T03:56:30.839Z,80.53
2019-02-27T03:59:22.951Z,86.87
2019-02-27T04:02:05.750Z,86.50
2019-02-27T04:05:26.775Z,85.22
2019-02-27T04:08:09.028Z,88.00
2019-02-27T04:10:38.435Z,83.92
2019-02-27T04:13:07.825Z,84.22
2019-02-27T04:15:37.260Z,82.42
2019-02-27T04:18:04.993Z,88.05
2019-02-27T04:20:34.377Z,83.90
2019-02-27T04:23:03.772Z,83.85
2019-02-27T04:25:33.150Z,88.47
2019-02-27T04:28:02.533Z,87.55
2019-02-27T04:30:31.916Z,87.82
2019-02-27T04:33:01.290Z,82.42
2019-02-27T04:35:30.669Z,87.33
2019-02-27T04:38:00.350Z,89.90
2019-02-27T04:40:29.724Z,82.90
2019-02-27T04:42:59.303Z,83.62
2019-02-27T04:45:30.404Z,82.05
2019-02-27T04:47:59.783Z,86.32
2019-02-27T04:50:29.158Z,85.05
2019-02-27T04:52:58.669Z,87.27
2019-02-27T04:55:28.000Z,79.17
2019-02-27T04:57:57.355Z,85.42
2019-02-27T05:00:26.925Z,82.60
2019-02-27T05:02:56.265Z,86.60
2019-02-27T05:05:25.654Z,77.72
2019-02-27T05:07:55.039Z,76.37
2019-02-27T05:10:24.426Z,85.10
2019-02-27T05:12:53.786Z,79.17
2019-02-27T05:15:23.185Z,82.13
2019-02-27T05:17:53.080Z,84.47
2019-02-27T05:20:23.666Z,77.90
2019-02-27T05:22:53.590Z,73.10
2019-02-27T05:25:22.965Z,72.73
2019-02-27T05:27:52.339Z,72.22
2019-02-27T05:30:21.724Z,72.30
2019-02-27T05:32:51.090Z,75.47
2019-02-27T05:35:23.316Z,72.95
2019-02-27T05:37:51.578Z,75.22
2019-02-27T05:40:23.099Z,71.03
2019-02-27T05:42:52.055Z,71.70
2019-02-27T05:45:21.650Z,69.03
2019-02-27T05:47:51.437Z,71.25
2019-02-27T05:50:20.815Z,73.97
2019-02-27T05:52:50.209Z,72.75
2019-02-27T05:55:19.580Z,78.97
2019-02-27T05:57:49.247Z,74.75
2019-02-27T06:00:21.260Z,72.47
2019-02-27T06:02:50.627Z,69.62
2019-02-27T06:05:20.019Z,66.93
2019-02-27T06:07:50.074Z,63.92
2019-02-27T06:10:20.749Z,63.73
2019-02-27T06:12:50.191Z,66.20
2019-02-27T06:15:19.939Z,66.13
2019-02-27T06:17:49.883Z,62.45
2019-02-27T06:20:19.370Z,59.13
2019-02-27T06:22:48.751Z,58.13
2019-02-27T06:25:23.223Z,56.03
2019-02-27T06:27:50.758Z,53.95
2019-02-27T06:30:21.574Z,64.40
2019-02-27T06:32:50.948Z,65.20
2019-02-27T06:35:20.314Z,70.10
2019-02-27T06:37:50.764Z,54.20
2019-02-27T06:40:20.799Z,62.70
2019-02-27T06:42:53.845Z,64.90
2019-02-27T06:45:23.306Z,66.00
2019-02-27T06:47:52.679Z,66.87
2019-02-27T06:50:25.202Z,58.70
2019-02-27T06:52:53.388Z,67.67
2019-02-27T06:55:25.529Z,69.37
2019-02-27T06:57:53.860Z,57.13
2019-02-27T07:00:25.139Z,56.47
2019-02-27T07:02:55.445Z,62.53
2019-02-27T07:05:26.875Z,61.05
2019-02-27T07:07:56.276Z,60.12
2019-02-27T07:10:25.682Z,63.63
2019-02-27T07:12:55.434Z,53.48
2019-02-27T07:15:24.837Z,54.53
2019-02-27T07:17:54.205Z,53.28
2019-02-27T07:20:24.523Z,60.30
2019-02-27T07:22:55.126Z,66.22
2019-02-27T07:25:24.513Z,56.30
2019-02-27T07:27:53.872Z,54.48
2019-02-27T07:30:23.942Z,54.60
2019-02-27T07:32:53.445Z,55.80
2019-02-27T07:35:25.608Z,54.70
2019-02-27T07:37:53.946Z,56.58
2019-02-27T07:40:23.394Z,54.73
2019-02-27T07:42:52.776Z,57.95
2019-02-27T07:45:25.204Z,89.43
2019-02-27T07:47:54.582Z,63.92
2019-02-27T07:50:23.957Z,64.70
2019-02-27T07:52:53.557Z,64.70
2019-02-27T07:55:25.313Z,60.60
2019-02-27T07:57:58.404Z,52.90
2019-02-27T08:00:26.372Z,51.60
2019-02-27T08:02:56.033Z,55.55
2019-02-27T08:05:27.971Z,61.57
2019-02-27T08:07:56.777Z,69.30
2019-02-27T08:10:26.974Z,64.53
2019-02-27T08:12:56.753Z,60.95
2019-02-27T08:15:26.225Z,56.40
2019-02-27T08:17:57.907Z,56.18
2019-02-27T08:20:26.696Z,52.33
2019-02-27T08:22:57.732Z,49.55
2019-02-27T08:25:46.708Z,56.03
2019-02-27T08:28:16.437Z,53.98
2019-02-27T08:30:45.810Z,58.20
2019-02-27T08:33:15.635Z,50.45
2019-02-27T08:35:45.026Z,56.10
2019-02-27T08:38:14.406Z,49.63
2019-02-27T08:40:43.784Z,50.17
2019-02-27T08:43:13.172Z,52.67
2019-02-27T08:45:42.553Z,53.02
2019-02-27T08:48:11.933Z,51.83
2019-02-27T08:50:41.782Z,48.73
2019-02-27T08:53:11.149Z,48.65
2019-02-27T08:55:40.672Z,49.40
2019-02-27T08:58:10.078Z,49.50
2019-02-27T09:00:39.432Z,51.35
2019-02-27T09:03:08.811Z,50.17
2019-02-27T09:05:38.467Z,44.40
2019-02-27T09:08:10.150Z,48.80
2019-02-27T09:10:38.959Z,46.23
2019-02-27T09:13:08.662Z,44.73
2019-02-27T09:15:38.036Z,45.85
2019-02-27T09:18:07.412Z,50.80
2019-02-27T09:20:36.829Z,45.28
2019-02-27T09:23:06.198Z,52.88
2019-02-27T09:25:35.585Z,47.65
2019-02-27T09:28:08.771Z,46.63
2019-02-27T09:30:36.104Z,47.10
2019-02-27T09:33:05.479Z,40.25
2019-02-27T09:35:38.646Z,41.63
2019-02-27T09:38:08.544Z,43.02
2019-02-27T09:40:38.856Z,47.80
2019-02-27T09:43:08.684Z,40.48
2019-02-27T09:45:38.067Z,42.20
2019-02-27T09:48:07.454Z,49.63
2019-02-27T09:50:48.402Z,44.45
2019-02-27T09:53:17.103Z,43.87
2019-02-27T09:55:46.485Z,41.42
2019-02-27T09:58:16.351Z,45.23
2019-02-27T10:00:59.189Z,41.30
2019-02-27T10:03:26.967Z,41.33
2019-02-27T10:05:56.345Z,47.08
2019-02-27T10:08:26.202Z,42.08
2019-02-27T10:10:56.202Z,40.98
2019-02-27T10:13:25.843Z,40.78
2019-02-27T10:15:55.233Z,43.65
2019-02-27T10:18:24.678Z,40.17
2019-02-27T10:20:54.062Z,38.78
2019-02-27T10:23:23.441Z,35.58
2019-02-27T10:25:53.247Z,33.38
2019-02-27T10:28:22.711Z,37.38
2019-02-27T10:30:52.089Z,38.08
2019-02-27T10:33:21.829Z,42.62
2019-02-27T10:35:51.200Z,40.17
2019-02-27T10:38:20.603Z,34.00
2019-02-27T10:40:50.017Z,34.50
2019-02-27T10:43:21.081Z,37.03
2019-02-27T10:45:50.692Z,34.53
2019-02-27T10:48:20.102Z,33.73
2019-02-27T10:50:49.473Z,33.92
2019-02-27T10:53:18.881Z,31.93
2019-02-27T10:55:49.242Z,31.23
2019-02-27T10:58:19.475Z,30.62
2019-02-27T11:00:50.198Z,30.23
2019-02-27T11:03:19.600Z,35.20
2019-02-27T11:05:52.393Z,28.47
2019-02-27T11:08:20.080Z,32.38
2019-02-27T11:10:49.936Z,30.37
2019-02-27T11:13:19.385Z,24.87
2019-02-27T11:15:48.783Z,30.57
2019-02-27T11:18:18.162Z,24.37
2019-02-27T11:20:47.546Z,25.88
2019-02-27T11:23:16.928Z,25.92
2019-02-27T11:25:46.323Z,24.07
2019-02-27T11:28:15.722Z,22.98
2019-02-27T11:30:45.105Z,29.02
2019-02-27T11:33:25.156Z,30.45
2019-02-27T11:35:45.965Z,25.68
2019-02-27T11:38:15.375Z,24.18
2019-02-27T11:40:44.790Z,26.68
2019-02-27T11:43:14.174Z,26.10
2019-02-27T11:45:43.564Z,26.57
2019-02-27T11:48:12.933Z,26.57
2019-02-27T11:50:42.324Z,26.45
2019-02-27T11:53:11.706Z,24.15
2019-02-27T11:55:41.647Z,25.72
2019-02-27T11:58:11.412Z,21.82
2019-02-27T12:00:40.794Z,24.27
2019-02-27T12:03:11.172Z,22.02
2019-02-27T12:05:41.148Z,22.02
2019-02-27T12:08:11.423Z,20.00
2019-02-27T12:10:40.808Z,19.23
2019-02-27T12:13:10.185Z,19.92
2019-02-27T12:15:43.323Z,20.40
2019-02-27T12:18:11.533Z,18.90
2019-02-27T12:20:41.316Z,21.02
2019-02-27T12:23:10.853Z,25.90
2019-02-27T12:25:40.316Z,17.27
2019-02-27T12:28:10.167Z,18.67
2019-02-27T12:30:39.611Z,20.05
2019-02-27T12:33:09.854Z,20.70
2019-02-27T12:35:39.228Z,22.70
2019-02-27T12:38:08.651Z,19.48
2019-02-27T12:40:38.080Z,19.87
2019-02-27T12:43:07.452Z,21.35
2019-02-27T12:45:36.842Z,18.20
2019-02-27T12:48:06.222Z,17.73
2019-02-27T12:50:35.605Z,15.20
2019-02-27T12:53:05.623Z,17.87
2019-02-27T12:55:36.248Z,16.07
2019-02-27T12:58:05.881Z,16.12
2019-02-27T13:00:36.208Z,14.87
2019-02-27T13:03:09.341Z,14.60
2019-02-27T13:05:37.811Z,15.32
2019-02-27T13:08:07.191Z,16.62
2019-02-27T13:10:36.596Z,19.67
2019-02-27T13:13:06.010Z,16.70
2019-02-27T13:15:35.392Z,16.70
2019-02-27T13:18:04.847Z,18.85
2019-02-27T13:20:35.941Z,21.42
2019-02-27T13:23:05.590Z,19.37
2019-02-27T13:25:35.285Z,19.10
2019-02-27T13:28:04.680Z,17.82
2019-02-27T13:30:34.077Z,17.73
2019-02-27T13:33:03.471Z,17.30
2019-02-27T13:35:33.391Z,15.43
2019-02-27T13:38:02.771Z,15.85
2019-02-27T13:40:35.564Z,16.25
2019-02-27T13:43:06.642Z,17.23
2019-02-27T13:45:36.019Z,15.18
2019-02-27T13:48:06.214Z,14.63
2019-02-27T13:50:35.624Z,13.15
2019-02-27T13:53:05.044Z,13.40
2019-02-27T13:55:34.404Z,10.60
2019-02-27T13:58:04.057Z,10.18
2019-02-27T14:00:36.929Z,9.88
2019-02-27T14:03:06.485Z,11.25
2019-02-27T14:05:36.351Z,9.98
2019-02-27T14:08:06.383Z,13.45
2019-02-27T14:10:36.377Z,13.70
2019-02-27T14:13:08.816Z,12.90
2019-02-27T14:15:36.808Z,13.10
2019-02-27T14:18:06.186Z,12.47
2019-02-27T14:20:35.567Z,11.28
2019-02-27T14:23:05.115Z,14.63
2019-02-27T14:25:34.883Z,12.03
2019-02-27T14:28:04.258Z,13.83
2019-02-27T14:30:51.772Z,14.30
2019-02-27T14:33:21.137Z,12.53
2019-02-27T14:35:50.532Z,15.53
2019-02-27T14:38:21.941Z,14.03
2019-02-27T14:40:51.310Z,11.60
2019-02-27T14:43:20.679Z,12.07
2019-02-27T14:45:50.805Z,11.53
2019-02-27T14:48:21.634Z,9.38
2019-02-27T14:50:51.867Z,11.28
2019-02-27T14:53:21.564Z,12.43
2019-02-27T14:55:50.926Z,12.23
2019-02-27T14:58:24.079Z,15.18
2019-02-27T15:00:51.436Z,11.53
2019-02-27T15:03:20.824Z,13.45
2019-02-27T15:05:50.495Z,13.90
2019-02-27T15:08:19.880Z,14.58
2019-02-27T15:10:49.255Z,19.20
2019-02-27T15:13:18.634Z,14.28
2019-02-27T15:15:48.267Z,20.20
2019-02-27T15:18:17.679Z,12.75
2019-02-27T15:20:47.063Z,13.15
2019-02-27T15:23:16.454Z,14.33
2019-02-27T15:25:45.844Z,12.73
2019-02-27T15:28:15.210Z,11.95
2019-02-27T15:30:46.614Z,12.45
2019-02-27T15:33:16.416Z,15.55
2019-02-27T15:35:45.981Z,15.23
2019-02-27T15:38:15.937Z,17.85
2019-02-27T15:40:45.384Z,16.55
2019-02-27T15:43:17.462Z,12.23
2019-02-27T15:45:48.102Z,16.02
2019-02-27T15:48:17.288Z,12.18
2019-02-27T15:50:46.658Z,12.85
2019-02-27T15:53:16.061Z,13.85
2019-02-27T15:55:45.700Z,11.28
2019-02-27T15:58:15.071Z,13.40
2019-02-27T16:00:44.878Z,14.50
2019-02-27T16:03:14.247Z,17.27
2019-02-27T16:05:43.628Z,16.60
2019-02-27T16:08:15.281Z,13.35
2019-02-27T16:10:54.321Z,16.73
2019-02-27T16:13:15.873Z,15.88
2019-02-27T16:15:45.361Z,14.95
2019-02-27T16:18:16.359Z,18.02
2019-02-27T16:20:47.018Z,17.07
2019-02-27T16:23:17.418Z,12.73
2019-02-27T16:25:46.807Z,15.78
2019-02-27T16:28:16.591Z,18.20
2019-02-27T16:30:46.111Z,15.45
2019-02-27T16:33:15.491Z,15.13
2019-02-27T16:35:46.417Z,15.63
2019-02-27T16:38:15.905Z,14.63
2019-02-27T16:40:45.284Z,17.12
2019-02-27T16:43:14.711Z,16.45
2019-02-27T16:45:44.383Z,18.92
2019-02-27T16:48:13.753Z,16.60
2019-02-27T16:50:43.142Z,18.87
2019-02-27T16:53:15.721Z,18.77
2019-02-27T16:55:43.662Z,16.30
2019-02-27T16:58:13.039Z,15.08
2019-02-27T17:00:42.446Z,18.80
2019-02-27T17:03:13.478Z,15.28
2019-02-27T17:05:43.825Z,19.75
2019-02-27T17:08:13.608Z,21.17
2019-02-27T17:10:42.997Z,18.23
2019-02-27T17:13:15.406Z,16.45
2019-02-27T17:15:44.765Z,16.20
2019-02-27T17:18:14.159Z,17.15
2019-02-27T17:20:46.517Z,17.07
2019-02-27T17:23:14.743Z,18.77
2019-02-27T17:25:44.408Z,20.55
2019-02-27T17:28:13.855Z,21.50
2019-02-27T17:30:43.531Z,22.85
2019-02-27T17:33:12.920Z,22.37
2019-02-27T17:35:42.296Z,23.73
2019-02-27T17:38:13.713Z,21.17
2019-02-27T17:40:42.793Z,30.23
2019-02-27T17:43:12.163Z,26.02
2019-02-27T17:45:44.331Z,25.48
2019-02-27T17:48:13.173Z,25.40
2019-02-27T17:50:42.594Z,27.25
2019-02-27T17:53:11.985Z,26.90
2019-02-27T17:55:42.477Z,30.35
2019-02-27T17:58:12.050Z,33.10
2019-02-27T18:00:50.085Z,31.27
2019-02-27T18:03:17.223Z,24.60
2019-02-27T18:05:46.600Z,27.25
2019-02-27T18:08:17.065Z,26.07
2019-02-27T18:10:46.552Z,26.80
2019-02-27T18:13:15.991Z,30.08
2019-02-27T18:15:45.387Z,30.27
2019-02-27T18:18:16.082Z,31.68
2019-02-27T18:20:45.812Z,27.80
2019-02-27T18:23:15.470Z,25.62
2019-02-27T18:25:44.845Z,23.55
2019-02-27T18:28:14.222Z,30.05
2019-02-27T18:30:43.634Z,30.80
2019-02-27T18:33:13.935Z,25.37
2019-02-27T18:35:44.114Z,28.12
2019-02-27T18:38:13.495Z,24.15
2019-02-27T18:40:43.681Z,24.80
2019-02-27T18:43:13.043Z,26.90
2019-02-27T18:45:42.718Z,23.62
2019-02-27T18:48:12.425Z,26.00
2019-02-27T18:50:41.816Z,21.97
2019-02-27T18:53:13.324Z,24.07
2019-02-27T18:55:44.003Z,25.02
2019-02-27T18:58:13.562Z,26.00
2019-02-27T19:00:43.141Z,25.97
2019-02-27T19:03:13.371Z,25.52
2019-02-27T19:05:42.737Z,23.07
2019-02-27T19:08:12.119Z,22.20
2019-02-27T19:10:42.654Z,21.62
2019-02-27T19:13:12.370Z,22.40
2019-02-27T19:15:45.270Z,25.35
2019-02-27T19:18:13.072Z,27.30
2019-02-27T19:20:46.474Z,28.47
2019-02-27T19:23:17.854Z,30.17
2019-02-27T19:25:47.848Z,32.50
2019-02-27T19:28:17.222Z,31.05
2019-02-27T19:30:46.783Z,28.60
2019-02-27T19:33:16.164Z,30.85
2019-02-27T19:35:45.580Z,29.32
2019-02-27T19:38:14.923Z,31.00
2019-02-27T19:40:44.311Z,31.75
2019-02-27T19:43:13.897Z,24.50
2019-02-27T19:45:43.617Z,26.50
2019-02-27T19:48:13.270Z,25.95
2019-02-27T19:50:46.302Z,21.62
2019-02-27T19:53:13.761Z,26.85
2019-02-27T19:55:43.151Z,24.72
2019-02-27T19:58:17.135Z,27.45
2019-02-27T20:00:48.463Z,25.75
2019-02-27T20:03:15.417Z,26.57
2019-02-27T20:05:44.861Z,27.95
2019-02-27T20:08:14.259Z,25.43
2019-02-27T20:10:44.233Z,24.57
2019-02-27T20:13:13.857Z,22.58
2019-02-27T20:15:45.606Z,23.80
2019-02-27T20:18:14.432Z,25.90
2019-02-27T20:20:44.028Z,28.55
2019-02-27T20:23:15.168Z,25.10
2019-02-27T20:25:44.631Z,24.15
2019-02-27T20:28:14.087Z,22.05
2019-02-27T20:30:43.528Z,24.47
2019-02-27T20:33:12.967Z,22.58
2019-02-27T20:35:42.349Z,21.82
2019-02-27T20:38:15.306Z,17.12
2019-02-27T20:40:43.168Z,19.30
2019-02-27T20:43:12.584Z,17.90
2019-02-27T20:45:42.774Z,19.85
2019-02-27T20:48:12.978Z,20.45
2019-02-27T20:50:46.763Z,19.25
2019-02-27T20:53:16.241Z,15.95
2019-02-27T20:55:45.611Z,20.65
2019-02-27T20:58:16.735Z,18.75
2019-02-27T21:00:46.508Z,16.93
2019-02-27T21:03:16.235Z,22.77
2019-02-27T21:05:45.610Z,17.52
2019-02-27T21:08:15.290Z,20.55
2019-02-27T21:10:47.345Z,20.48
2019-02-27T21:13:16.919Z,19.65
2019-02-27T21:15:46.401Z,21.20
2019-02-27T21:18:15.790Z,18.07
2019-02-27T21:20:46.149Z,17.62
2019-02-27T21:23:16.105Z,20.40
2019-02-27T21:25:49.327Z,19.17
2019-02-27T21:28:21.020Z,18.05
2019-02-27T21:30:52.297Z,20.80
2019-02-27T21:33:20.376Z,20.55
2019-02-27T21:35:49.764Z,18.85
2019-02-27T21:38:19.287Z,18.80
2019-02-27T21:40:48.663Z,19.80
2019-02-27T21:43:18.038Z,19.65
2019-02-27T21:45:47.587Z,18.17
2019-02-27T21:48:16.936Z,21.35
2019-02-27T21:50:46.339Z,22.65
2019-02-27T21:53:15.735Z,21.55
2019-02-27T21:55:45.506Z,20.50
2019-02-27T21:58:20.406Z,22.52
2019-02-27T22:00:48.038Z,20.80
2019-02-27T22:03:17.580Z,20.95
2019-02-27T22:05:47.024Z,18.98
2019-02-27T22:08:16.419Z,18.87
2019-02-27T22:10:45.790Z,19.07
2019-02-27T22:13:15.165Z,16.85
2019-02-27T22:15:44.568Z,18.87
2019-02-27T22:18:13.954Z,16.37
2019-02-27T22:20:43.333Z,17.65
2019-02-27T22:23:13.589Z,17.17
2019-02-27T22:25:42.987Z,17.92
2019-02-27T22:28:13.366Z,16.95
2019-02-27T22:30:42.781Z,15.70
2019-02-27T22:33:12.150Z,15.60
2019-02-27T22:35:41.552Z,16.07
2019-02-27T22:38:10.945Z,14.98
2019-02-27T22:40:40.321Z,13.75
2019-02-27T22:43:09.719Z,18.62
2019-02-27T22:45:43.158Z,16.05
2019-02-27T22:48:10.510Z,15.58
2019-02-27T22:50:41.251Z,14.80
2019-02-27T22:53:11.042Z,15.78
2019-02-27T22:55:42.159Z,14.95
2019-02-27T22:58:11.533Z,15.78
2019-02-27T23:00:56.679Z,12.43
2019-02-27T23:03:42.538Z,13.03
2019-02-27T23:06:13.011Z,14.23
2019-02-27T23:08:43.007Z,13.85
2019-02-27T23:11:12.743Z,13.25
2019-02-27T23:13:47.646Z,13.58
2019-02-27T23:16:17.379Z,12.33
2019-02-27T23:18:46.766Z,12.35
2019-02-27T23:21:16.733Z,11.90
2019-02-27T23:23:46.110Z,10.65
2019-02-27T23:26:19.827Z,13.60
2019-02-27T23:28:46.655Z,15.53
2019-02-27T23:31:22.161Z,16.37
2019-02-27T23:33:48.503Z,13.03
2019-02-27T23:36:18.230Z,16.87
2019-02-27T23:38:47.630Z,17.67
2019-02-27T23:41:17.006Z,16.55
2019-02-27T23:43:46.389Z,15.80
2019-02-27T23:46:18.511Z,17.55
2019-02-27T23:48:46.862Z,16.70
2019-02-27T23:51:17.012Z,18.10
2019-02-27T23:53:46.443Z,19.30
2019-02-27T23:56:19.371Z,16.37
2019-02-27T23:58:47.236Z,17.82
